Time;durP1;ratioP1;P1;durP2;ratioP2;P2;SDS_P1;SDS_P2;PMS_P1;PMS_P2;Temp;Humidity;BMP_temperature;BMP_pressure;BME280_temperature;BME280_humidity;BME280_pressure;Samples;Min_cycle;Max_cycle;Signal;HPM_P1;HPM_P2
2021/03/27 00:04:38;;;;;;;3.05;1.80;;;14.30;52.60;;;;;;9966138;28;20061;-65
2021/03/27 00:09:43;;;;;;;3.25;2.20;;;14.30;53.10;;;;;;9968136;28;20128;-62
2021/03/27 00:14:55;;;;;;;3.42;2.20;;;14.20;53.40;;;;;;9965656;28;20045;-63
2021/03/27 00:19:55;;;;;;;3.13;1.58;;;14.10;54.10;;;;;;9967546;28;20029;-62
2021/03/27 00:24:58;;;;;;;1.85;1.40;;;14.20;54.20;;;;;;9970831;28;20115;-61
2021/03/27 00:29:56;;;;;;;1.95;1.40;;;14.10;54.50;;;;;;9974848;28;20569;-61
2021/03/27 00:34:54;;;;;;;1.75;1.42;;;14.10;55.00;;;;;;9974995;28;20735;-62
2021/03/27 00:39:57;;;;;;;3.35;1.50;;;13.90;55.60;;;;;;9974572;28;20712;-61
2021/03/27 00:44:58;;;;;;;2.38;1.48;;;13.80;56.30;;;;;;9975970;28;20037;-64
2021/03/27 00:50:18;;;;;;;3.42;1.70;;;13.80;56.80;;;;;;9974650;28;20241;-61
2021/03/27 00:55:22;;;;;;;3.00;1.50;;;13.70;57.20;;;;;;9975721;28;21858;-61
2021/03/27 01:00:15;;;;;;;2.03;1.73;;;13.60;57.60;;;;;;9974724;28;20124;-61
2021/03/27 01:05:09;;;;;;;4.43;1.42;;;13.40;59.20;;;;;;9974704;28;20048;-63
2021/03/27 01:10:10;;;;;;;3.85;1.80;;;13.10;60.20;;;;;;9972478;28;20527;-63
2021/03/27 01:15:17;;;;;;;3.92;1.92;;;13.10;60.70;;;;;;9973429;28;20095;-62
2021/03/27 01:20:29;;;;;;;2.55;1.95;;;13.10;60.80;;;;;;9974455;28;20038;-60
2021/03/27 01:25:26;;;;;;;2.95;1.90;;;13.00;62.00;;;;;;9972525;28;20128;-64
2021/03/27 01:30:40;;;;;;;2.55;1.88;;;12.90;62.30;;;;;;9973398;28;20040;-66
2021/03/27 01:35:44;;;;;;;3.33;1.95;;;12.90;62.50;;;;;;9972384;28;20080;-68
2021/03/27 01:40:53;;;;;;;4.28;2.42;;;12.90;63.10;;;;;;9973699;28;20128;-65
2021/03/27 01:46:07;;;;;;;4.63;2.10;;;12.80;63.50;;;;;;9972875;28;20069;-66
2021/03/27 01:51:07;;;;;;;4.55;2.40;;;12.80;63.30;;;;;;9972694;28;20040;-61
2021/03/27 01:56:26;;;;;;;3.42;2.15;;;12.80;64.00;;;;;;9970182;28;20128;-68
2021/03/27 02:01:17;;;;;;;4.15;2.25;;;12.80;64.90;;;;;;9973123;28;20053;-60
2021/03/27 02:06:18;;;;;;;2.95;2.20;;;12.80;64.50;;;;;;9969647;28;20041;-64
2021/03/27 02:11:46;;;;;;;2.22;1.50;;;12.90;64.80;;;;;;9972444;28;20117;-59
2021/03/27 02:16:48;;;;;;;2.65;0.85;;;12.30;66.20;;;;;;9972025;28;20045;-60
2021/03/27 02:21:59;;;;;;;1.15;0.68;;;10.30;71.70;;;;;;9972786;28;20042;-62
2021/03/27 02:27:01;;;;;;;0.63;0.50;;;9.80;73.10;;;;;;9969366;28;20535;-63
2021/03/27 02:32:16;;;;;;;0.40;0.40;;;9.50;72.50;;;;;;9970695;28;20041;-60
2021/03/27 02:37:09;;;;;;;1.05;0.95;;;9.50;71.90;;;;;;9967267;28;20126;-60
2021/03/27 02:42:03;;;;;;;0.38;0.22;;;9.50;71.60;;;;;;9970297;28;20046;-60
2021/03/27 02:47:05;;;;;;;0.50;0.38;;;9.50;71.40;;;;;;9970270;28;20045;-60
2021/03/27 02:52:38;;;;;;;0.50;0.50;;;9.70;70.80;;;;;;9970004;28;20022;-60
2021/03/27 02:58:00;;;;;;;3.30;0.32;;;9.80;70.30;;;;;;9971062;28;20458;-59
2021/03/27 03:03:06;;;;;;;0.20;0.20;;;10.00;69.50;;;;;;9968167;28;20185;-60
2021/03/27 03:08:39;;;;;;;3.10;1.23;;;10.00;69.00;;;;;;9969656;28;20025;-60
2021/03/27 03:14:09;;;;;;;12.57;7.75;;;10.10;68.40;;;;;;9965859;28;20048;-60
2021/03/27 03:19:14;;;;;;;27.20;15.35;;;9.90;68.50;;;;;;9945566;28;20425;-60
2021/03/27 03:24:33;;;;;;;23.02;11.77;;;9.80;68.40;;;;;;9967786;28;20110;-60
2021/03/27 03:29:45;;;;;;;22.10;10.55;;;9.90;67.50;;;;;;9968921;28;20470;-62
2021/03/27 03:34:59;;;;;;;19.15;6.80;;;9.90;66.80;;;;;;9968881;28;20642;-62
2021/03/27 03:40:04;;;;;;;2.67;1.20;;;9.80;66.70;;;;;;9970228;28;20033;-60
2021/03/27 03:45:18;;;;;;;2.73;1.50;;;9.80;66.40;;;;;;9968561;28;20145;-61
2021/03/27 03:50:40;;;;;;;0.40;0.40;;;9.90;66.00;;;;;;9966601;28;20288;-60
2021/03/27 03:56:04;;;;;;;0.90;0.40;;;9.80;66.00;;;;;;9966158;28;20033;-62
2021/03/27 04:01:11;;;;;;;0.95;0.50;;;10.00;65.70;;;;;;9983073;28;20043;-61
2021/03/27 04:06:04;;;;;;;0.40;0.40;;;9.80;65.80;;;;;;9966955;28;20037;-62
2021/03/27 04:10:59;;;;;;;1.70;0.80;;;9.60;66.30;;;;;;9968217;28;20128;-61
2021/03/27 04:15:55;;;;;;;1.23;0.55;;;9.50;66.60;;;;;;9965824;28;20037;-60
2021/03/27 04:20:57;;;;;;;1.08;0.82;;;9.30;66.70;;;;;;9968210;28;20144;-59
2021/03/27 04:25:55;;;;;;;0.73;0.60;;;9.30;66.90;;;;;;9966465;28;20045;-59
2021/03/27 04:30:49;;;;;;;1.05;0.50;;;9.30;66.30;;;;;;9965068;28;20037;-60
2021/03/27 04:35:53;;;;;;;2.38;0.77;;;9.40;65.90;;;;;;9967755;28;20205;-62
2021/03/27 04:40:52;;;;;;;1.02;0.32;;;9.40;66.00;;;;;;9965890;28;20048;-60
2021/03/27 04:45:54;;;;;;;0.70;0.40;;;9.40;65.80;;;;;;9967726;28;20111;-59
2021/03/27 04:51:07;;;;;;;0.63;0.55;;;9.50;65.80;;;;;;9964917;28;20036;-60
2021/03/27 04:56:04;;;;;;;1.73;0.70;;;9.60;65.20;;;;;;9967788;28;20030;-61
2021/03/27 05:01:26;;;;;;;0.73;0.47;;;9.40;65.10;;;;;;9966177;28;20041;-61
2021/03/27 05:06:31;;;;;;;1.65;0.70;;;9.40;64.80;;;;;;9967002;28;20053;-61
2021/03/27 05:11:42;;;;;;;1.73;0.70;;;9.30;64.00;;;;;;9972350;28;20038;-60
2021/03/27 05:16:37;;;;;;;0.60;0.57;;;9.20;63.40;;;;;;9974519;28;20029;-60
2021/03/27 05:21:37;;;;;;;1.77;0.50;;;9.20;63.30;;;;;;9974130;28;20176;-65
2021/03/27 05:26:35;;;;;;;1.30;0.40;;;9.20;63.00;;;;;;9972413;28;20491;-64
2021/03/27 05:32:07;;;;;;;0.90;0.57;;;9.30;62.30;;;;;;9972847;28;20176;-63
2021/03/27 05:37:19;;;;;;;1.80;0.40;;;9.20;61.90;;;;;;9927355;28;20054;-61
2021/03/27 05:42:43;;;;;;;1.02;0.50;;;9.20;61.60;;;;;;9964453;28;20460;-63
2021/03/27 05:48:11;;;;;;;0.10;0.10;;;9.20;60.60;;;;;;9973585;28;20414;-60
2021/03/27 05:53:33;;;;;;;0.75;0.57;;;9.20;59.50;;;;;;9973039;28;20468;-61
2021/03/27 05:58:33;;;;;;;1.23;0.95;;;9.20;60.00;;;;;;9973211;28;20592;-60
2021/03/27 06:04:05;;;;;;;0.68;0.52;;;9.20;59.40;;;;;;9972337;28;20041;-60
2021/03/27 06:09:15;;;;;;;2.05;0.20;;;9.20;59.00;;;;;;9963507;28;20569;-65
2021/03/27 06:14:11;;;;;;;2.40;0.63;;;9.20;58.80;;;;;;9971822;28;20038;-65
2021/03/27 06:19:17;;;;;;;0.60;0.40;;;9.20;58.40;;;;;;9971968;28;20037;-62
2021/03/27 06:24:27;;;;;;;2.58;0.50;;;9.30;58.20;;;;;;9971964;28;20052;-60
2021/03/27 06:29:40;;;;;;;0.85;0.52;;;9.30;57.90;;;;;;9968418;28;20037;-62
2021/03/27 06:35:01;;;;;;;2.33;0.40;;;9.40;57.10;;;;;;9971562;28;21104;-64
2021/03/27 06:40:06;;;;;;;2.53;0.40;;;9.40;57.30;;;;;;9969113;28;20038;-60
2021/03/27 06:45:15;;;;;;;0.32;0.32;;;9.50;57.00;;;;;;9970425;28;20056;-60
2021/03/27 06:50:31;;;;;;;0.35;0.20;;;9.60;56.80;;;;;;9970111;28;20549;-61
2021/03/27 06:55:33;;;;;;;1.65;0.50;;;9.60;56.50;;;;;;9970575;28;20357;-60
2021/03/27 07:00:57;;;;;;;0.35;0.20;;;9.60;56.50;;;;;;9969300;28;20072;-62
2021/03/27 07:06:03;;;;;;;0.85;0.50;;;9.70;55.80;;;;;;9970121;28;20045;-59
2021/03/27 07:10:59;;;;;;;1.90;0.40;;;9.60;55.80;;;;;;9966576;28;20124;-60
2021/03/27 07:15:53;;;;;;;1.10;0.30;;;9.80;55.50;;;;;;9970382;28;20248;-59
2021/03/27 07:21:06;;;;;;;1.40;0.90;;;9.80;55.00;;;;;;9968180;28;20079;-60
2021/03/27 07:26:35;;;;;;;1.92;1.10;;;9.80;54.60;;;;;;9967550;28;20128;-58
2021/03/27 07:31:46;;;;;;;2.45;0.30;;;9.80;54.00;;;;;;9967136;28;20279;-60
2021/03/27 07:37:09;;;;;;;2.40;0.75;;;9.70;53.90;;;;;;9969402;28;20128;-61
2021/03/27 07:42:16;;;;;;;1.75;0.45;;;9.90;53.90;;;;;;9968247;28;20045;-60
2021/03/27 07:47:13;;;;;;;;;;;9.90;53.80;;;;;;9966598;28;20655;-61
2021/03/27 07:52:28;;;;;;;0.80;0.70;;;10.00;53.20;;;;;;9968409;28;19920;-64
2021/03/27 07:57:44;;;;;;;0.93;0.50;;;10.00;52.20;;;;;;9968340;28;20037;-63
2021/03/27 08:03:03;;;;;;;2.85;0.63;;;10.10;52.50;;;;;;9968485;28;20041;-63
2021/03/27 08:08:02;;;;;;;2.25;0.90;;;9.90;52.20;;;;;;9967682;28;20030;-63
2021/03/27 08:12:53;;;;;;;0.60;0.35;;;9.70;52.30;;;;;;9967451;28;20487;-61
2021/03/27 08:18:11;;;;;;;2.58;0.60;;;9.50;52.20;;;;;;9964985;28;20025;-62
2021/03/27 08:23:33;;;;;;;1.67;0.60;;;9.60;51.30;;;;;;9964031;28;20061;-58
2021/03/27 08:28:42;;;;;;;1.67;1.05;;;9.70;50.90;;;;;;9965023;28;20680;-60
2021/03/27 08:34:06;;;;;;;1.33;0.43;;;9.70;51.20;;;;;;9965715;28;20430;-64
2021/03/27 08:39:34;;;;;;;2.40;0.60;;;9.90;50.90;;;;;;9963539;28;20869;-64
2021/03/27 08:44:42;;;;;;;1.52;0.68;;;10.10;50.10;;;;;;9967832;28;20486;-63
2021/03/27 08:49:57;;;;;;;0.47;0.47;;;10.20;50.20;;;;;;9971182;28;20608;-61
2021/03/27 08:55:01;;;;;;;0.82;0.57;;;10.20;49.90;;;;;;9971999;28;21063;-63
2021/03/27 09:00:01;;;;;;;1.88;0.60;;;10.20;49.00;;;;;;9973757;28;20040;-64
2021/03/27 09:05:03;;;;;;;0.43;0.40;;;10.40;48.80;;;;;;9974033;28;20045;-62
2021/03/27 09:10:12;;;;;;;1.35;1.13;;;10.70;47.70;;;;;;9973099;28;20079;-64
2021/03/27 09:15:31;;;;;;;2.35;0.40;;;10.60;47.90;;;;;;9974237;28;20057;-64
2021/03/27 09:20:41;;;;;;;1.48;0.50;;;10.60;47.80;;;;;;9971733;28;20087;-61
2021/03/27 09:25:58;;;;;;;1.38;0.85;;;10.70;47.20;;;;;;9967751;28;20041;-63
2021/03/27 09:31:26;;;;;;;1.13;0.57;;;10.60;46.80;;;;;;10040637;28;20048;-63
2021/03/27 09:36:38;;;;;;;3.78;1.55;;;10.70;46.40;;;;;;10044900;28;20715;-62
2021/03/27 09:41:53;;;;;;;1.52;0.60;;;10.70;45.90;;;;;;10044111;28;20044;-65
2021/03/27 09:47:38;;;;;;;1.58;0.80;;;10.80;45.50;;;;;;10043527;28;20117;-62
2021/03/27 09:52:38;;;;;;;2.13;1.17;;;11.00;45.40;;;;;;9967333;28;20032;-63
2021/03/27 09:57:54;;;;;;;1.10;0.60;;;11.00;45.20;;;;;;10043600;28;20040;-61
2021/03/27 10:03:01;;;;;;;1.73;0.82;;;10.80;45.20;;;;;;10003560;28;20044;-64
2021/03/27 10:07:56;;;;;;;1.27;0.63;;;10.70;45.00;;;;;;9969921;28;20131;-63
2021/03/27 10:13:15;;;;;;;1.13;0.73;;;10.80;45.10;;;;;;9970319;28;20045;-62
2021/03/27 10:18:44;;;;;;;1.75;0.63;;;10.90;44.60;;;;;;9966624;28;20033;-63
2021/03/27 10:23:56;;;;;;;2.08;0.77;;;11.50;44.00;;;;;;9968218;28;20033;-64
2021/03/27 10:29:01;;;;;;;2.65;0.88;;;11.70;43.20;;;;;;9968820;28;20240;-64
2021/03/27 10:34:20;;;;;;;1.50;0.93;;;11.80;42.60;;;;;;9969286;28;20760;-62
2021/03/27 10:39:36;;;;;;;1.65;0.85;;;12.10;42.10;;;;;;9967445;28;20041;-62
2021/03/27 10:44:36;;;;;;;6.18;1.55;;;12.60;41.70;;;;;;9968551;28;20462;-62
2021/03/27 10:49:45;;;;;;;2.17;0.50;;;12.80;40.90;;;;;;9970091;28;20045;-65
2021/03/27 10:55:04;;;;;;;1.05;0.65;;;13.10;40.50;;;;;;9968603;28;20508;-62
2021/03/27 11:00:46;;;;;;;0.85;0.50;;;13.30;39.80;;;;;;9965156;28;20042;-63
2021/03/27 11:05:48;;;;;;;0.98;0.38;;;13.10;38.90;;;;;;9970255;28;21151;-63
2021/03/27 11:10:42;;;;;;;1.23;0.40;;;12.90;38.50;;;;;;9979330;28;20139;-65
2021/03/27 11:15:50;;;;;;;2.55;0.70;;;12.70;39.50;;;;;;9967275;28;20025;-62
2021/03/27 11:21:22;;;;;;;2.58;1.05;;;12.50;39.30;;;;;;9964534;28;20055;-63
2021/03/27 11:26:28;;;;;;;3.60;1.40;;;12.60;39.40;;;;;;9950430;28;20546;-60
2021/03/27 11:31:38;;;;;;;4.15;1.20;;;12.40;39.90;;;;;;9964696;28;20462;-61
2021/03/27 11:36:48;;;;;;;2.42;0.75;;;12.60;39.60;;;;;;9962038;28;20160;-62
2021/03/27 11:41:44;;;;;;;2.22;0.60;;;12.60;39.70;;;;;;9966880;28;20045;-64
2021/03/27 11:46:43;;;;;;;2.42;0.73;;;12.30;39.40;;;;;;9967301;28;20526;-64
2021/03/27 11:52:00;;;;;;;1.85;1.00;;;12.10;39.70;;;;;;9968070;28;20037;-63
2021/03/27 11:57:02;;;;;;;4.10;1.08;;;12.00;39.60;;;;;;9967443;28;20041;-62
2021/03/27 12:02:25;;;;;;;0.95;0.70;;;12.20;39.60;;;;;;9965946;28;20033;-66
2021/03/27 12:07:35;;;;;;;1.25;0.80;;;12.40;39.00;;;;;;9966239;28;20037;-58
2021/03/27 12:12:31;;;;;;;1.30;0.88;;;12.40;38.90;;;;;;9967452;28;20114;-62
2021/03/27 12:17:30;;;;;;;1.48;0.70;;;12.60;38.80;;;;;;9966951;28;20373;-62
2021/03/27 12:22:43;;;;;;;2.15;0.80;;;12.50;38.80;;;;;;9966680;28;20892;-61
2021/03/27 12:27:47;;;;;;;3.58;0.85;;;12.60;38.80;;;;;;9966196;28;20026;-65
2021/03/27 12:33:05;;;;;;;3.00;1.00;;;12.90;38.90;;;;;;9966294;28;20048;-67
2021/03/27 12:38:08;;;;;;;3.42;0.95;;;13.40;38.60;;;;;;9966514;28;20692;-63
2021/03/27 12:43:24;;;;;;;3.60;1.02;;;13.50;38.20;;;;;;9963299;28;20058;-63
2021/03/27 12:48:37;;;;;;;1.80;1.20;;;13.30;37.50;;;;;;9965881;28;20044;-66
2021/03/27 12:53:45;;;;;;;1.98;0.80;;;13.10;37.90;;;;;;9964394;28;20288;-62
2021/03/27 12:58:38;;;;;;;3.55;0.90;;;13.10;37.70;;;;;;9967470;28;20045;-61
2021/03/27 13:03:46;;;;;;;2.20;0.60;;;13.00;37.50;;;;;;9965510;28;20042;-65
2021/03/27 13:09:07;;;;;;;3.83;0.75;;;13.50;36.70;;;;;;9965348;28;20041;-64
2021/03/27 13:14:30;;;;;;;1.60;0.50;;;14.70;35.30;;;;;;9964261;28;20733;-60
2021/03/27 13:19:36;;;;;;;2.08;0.80;;;14.70;35.20;;;;;;9965992;28;20592;-62
2021/03/27 13:24:32;;;;;;;1.67;0.95;;;14.10;35.30;;;;;;9961675;28;20944;-65
2021/03/27 13:29:38;;;;;;;1.42;0.60;;;14.00;36.10;;;;;;9966690;28;20033;-60
2021/03/27 13:34:36;;;;;;;;;;;14.00;35.70;;;;;;9972847;28;20129;-62
2021/03/27 13:39:49;;;;;;;4.15;0.77;;;15.50;34.60;;;;;;9970637;28;19917;-59
2021/03/27 13:45:20;;;;;;;2.75;0.70;;;15.40;34.70;;;;;;9972219;28;20080;-62
2021/03/27 13:50:11;;;;;;;1.75;0.93;;;14.70;34.90;;;;;;9964600;28;20058;-62
2021/03/27 13:55:16;;;;;;;0.70;0.47;;;19.90;30.60;;;;;;9971377;28;20041;-60
2021/03/27 14:00:38;;;;;;;1.05;0.88;;;15.90;33.60;;;;;;9970059;28;20503;-62
2021/03/27 14:05:40;;;;;;;3.22;0.90;;;14.70;34.50;;;;;;9970698;28;20182;-62
2021/03/27 14:11:00;;;;;;;1.38;0.73;;;14.30;34.80;;;;;;9970604;28;20034;-63
2021/03/27 14:16:12;;;;;;;1.13;0.98;;;14.20;34.60;;;;;;9973367;28;20495;-61
2021/03/27 14:21:22;;;;;;;1.80;1.00;;;14.00;34.40;;;;;;9971059;28;20080;-60
2021/03/27 14:26:23;;;;;;;1.55;0.55;;;13.80;34.30;;;;;;9968114;28;20061;-62
2021/03/27 14:31:33;;;;;;;4.25;0.80;;;14.00;33.30;;;;;;9969874;28;20048;-61
2021/03/27 14:36:45;;;;;;;2.13;0.80;;;14.50;33.00;;;;;;9970608;28;20049;-64
2021/03/27 14:42:09;;;;;;;2.05;1.27;;;16.60;31.70;;;;;;9968575;28;20035;-60
2021/03/27 14:47:12;;;;;;;2.28;0.95;;;16.50;31.10;;;;;;9970304;28;20068;-60
2021/03/27 14:52:13;;;;;;;1.70;0.70;;;15.20;32.00;;;;;;9969780;28;20107;-64
2021/03/27 14:57:26;;;;;;;3.42;1.58;;;14.60;32.60;;;;;;9970557;28;20443;-62
2021/03/27 15:02:23;;;;;;;4.15;0.80;;;16.00;31.80;;;;;;9969483;28;20108;-61
2021/03/27 15:07:47;;;;;;;3.03;0.80;;;15.20;31.70;;;;;;9970376;28;20374;-62
2021/03/27 15:12:40;;;;;;;3.65;0.82;;;14.10;33.00;;;;;;9958640;28;20538;-61
2021/03/27 15:17:43;;;;;;;1.60;0.80;;;13.90;33.50;;;;;;9985291;28;20555;-63
2021/03/27 15:23:06;;;;;;;3.75;0.73;;;13.70;33.80;;;;;;9969274;28;20562;-63
2021/03/27 15:28:15;;;;;;;2.97;0.70;;;13.30;34.20;;;;;;9960374;28;20042;-63
2021/03/27 15:33:44;;;;;;;4.00;1.30;;;13.10;34.60;;;;;;9968927;28;20554;-60
2021/03/27 15:39:03;;;;;;;1.83;1.42;;;13.40;34.60;;;;;;9934506;28;20050;-62
2021/03/27 15:44:04;;;;;;;2.97;1.00;;;14.00;33.70;;;;;;9961465;28;20251;-60
2021/03/27 15:49:17;;;;;;;3.47;0.68;;;13.60;34.50;;;;;;9968113;28;20021;-63
2021/03/27 15:54:28;;;;;;;2.05;1.25;;;13.40;35.00;;;;;;9968043;28;20083;-62
2021/03/27 15:59:18;;;;;;;4.57;0.88;;;13.00;35.40;;;;;;9967571;28;20120;-62
2021/03/27 16:04:43;;;;;;;1.77;0.70;;;12.90;35.70;;;;;;9967519;28;20411;-59
2021/03/27 16:09:54;;;;;;;1.20;0.77;;;12.80;36.00;;;;;;9963607;28;20478;-63
2021/03/27 16:15:11;;;;;;;4.45;0.80;;;12.80;36.10;;;;;;9966990;28;20056;-61
2021/03/27 16:20:30;;;;;;;2.42;1.20;;;13.20;35.70;;;;;;9967314;28;20596;-62
2021/03/27 16:25:24;;;;;;;1.52;1.08;;;13.00;36.10;;;;;;9965067;28;20042;-61
2021/03/27 16:30:18;;;;;;;4.57;1.33;;;12.90;36.40;;;;;;9966263;28;20041;-64
2021/03/27 16:35:20;;;;;;;2.50;0.68;;;12.80;36.40;;;;;;9968092;28;20123;-62
2021/03/27 16:40:14;;;;;;;2.63;0.77;;;12.70;36.50;;;;;;9965448;28;20045;-60
2021/03/27 16:45:35;;;;;;;3.53;1.15;;;12.70;36.70;;;;;;9965700;28;20079;-61
2021/03/27 16:50:35;;;;;;;4.72;1.05;;;12.70;36.70;;;;;;9966346;28;20559;-64
2021/03/27 16:55:47;;;;;;;3.67;1.00;;;12.70;36.80;;;;;;9968087;28;20184;-61
2021/03/27 17:01:03;;;;;;;3.20;0.98;;;12.70;37.00;;;;;;9966083;28;20493;-62
2021/03/27 17:06:21;;;;;;;1.98;1.13;;;12.60;37.10;;;;;;9969300;28;20037;-62
2021/03/27 17:11:30;;;;;;;4.88;1.27;;;12.50;37.40;;;;;;9973785;28;20548;-68
2021/03/27 17:16:54;;;;;;;2.22;0.80;;;12.40;37.40;;;;;;9974049;28;20454;-60
2021/03/27 17:22:16;;;;;;;2.47;0.77;;;12.30;37.60;;;;;;9974479;28;20731;-63
2021/03/27 17:27:23;;;;;;;3.75;0.98;;;12.30;37.80;;;;;;9971891;28;20564;-65
2021/03/27 17:32:33;;;;;;;2.92;1.48;;;12.30;37.80;;;;;;9976649;28;20045;-64
2021/03/27 17:37:40;;;;;;;5.13;0.90;;;12.30;37.90;;;;;;9971054;28;21783;-64
2021/03/27 17:42:57;;;;;;;2.15;0.98;;;12.20;37.90;;;;;;9972663;28;20052;-65
2021/03/27 17:48:23;;;;;;;2.53;1.35;;;12.20;38.10;;;;;;9971975;28;20505;-65
2021/03/27 17:53:41;;;;;;;5.57;1.25;;;12.20;38.10;;;;;;9970104;28;20039;-61
2021/03/27 17:59:10;;;;;;;5.82;1.77;;;12.20;38.30;;;;;;9970067;28;20033;-60
2021/03/27 18:04:11;;;;;;;3.28;1.55;;;12.30;38.20;;;;;;9972411;28;20064;-63
2021/03/27 18:09:06;;;;;;;2.60;1.00;;;12.10;38.60;;;;;;9971050;28;20652;-63
2021/03/27 18:14:30;;;;;;;2.10;1.08;;;12.10;38.80;;;;;;9970482;28;20174;-61
2021/03/27 18:19:26;;;;;;;2.03;0.80;;;12.00;39.00;;;;;;9969740;28;20033;-61
2021/03/27 18:24:47;;;;;;;;;;;12.00;39.10;;;;;;9969041;28;20041;-63
2021/03/27 18:29:49;;;;;;;11.60;6.00;;;12.00;39.20;;;;;;9966114;28;19917;-63
2021/03/27 18:35:14;;;;;;;3.17;2.00;;;12.10;39.10;;;;;;9965790;28;20515;-62
2021/03/27 18:40:20;;;;;;;6.85;1.95;;;12.10;39.30;;;;;;9968175;28;20067;-62
2021/03/27 18:45:36;;;;;;;3.58;1.58;;;12.00;39.50;;;;;;9968964;28;20937;-62
2021/03/27 18:50:59;;;;;;;5.33;1.67;;;11.90;39.60;;;;;;9968986;28;20478;-63
2021/03/27 18:56:06;;;;;;;2.78;1.67;;;12.00;39.90;;;;;;9966912;28;20169;-63
2021/03/27 19:01:08;;;;;;;5.68;1.80;;;12.00;39.90;;;;;;9969064;28;20037;-61
2021/03/27 19:06:12;;;;;;;3.60;1.40;;;11.90;40.00;;;;;;9971693;28;20947;-62
2021/03/27 19:11:17;;;;;;;5.78;1.58;;;11.90;40.10;;;;;;9968641;28;20466;-63
2021/03/27 19:16:12;;;;;;;2.53;1.13;;;11.90;40.20;;;;;;9968089;28;20065;-64
2021/03/27 19:21:25;;;;;;;5.50;1.38;;;11.90;40.50;;;;;;9969491;28;20045;-64
2021/03/27 19:26:37;;;;;;;4.50;1.20;;;11.90;40.50;;;;;;9968553;28;21183;-64
2021/03/27 19:31:32;;;;;;;2.55;1.23;;;11.80;40.50;;;;;;9963084;28;20112;-62
2021/03/27 19:36:30;;;;;;;4.30;1.92;;;11.80;40.60;;;;;;9965588;28;20210;-61
2021/03/27 19:41:38;;;;;;;4.95;1.35;;;11.80;40.70;;;;;;9964827;28;20411;-62
2021/03/27 19:47:02;;;;;;;5.50;1.75;;;11.80;40.90;;;;;;9965125;28;20140;-64
2021/03/27 19:52:16;;;;;;;3.50;1.48;;;11.80;40.90;;;;;;9966204;28;20033;-63
2021/03/27 19:57:40;;;;;;;2.65;1.33;;;11.90;40.90;;;;;;9961324;28;20668;-64
2021/03/27 20:02:45;;;;;;;1.73;1.02;;;11.90;41.00;;;;;;9963170;28;20042;-65
2021/03/27 20:07:54;;;;;;;4.00;1.48;;;11.80;41.10;;;;;;9965734;28;20438;-66
2021/03/27 20:12:52;;;;;;;1.95;1.30;;;11.80;41.30;;;;;;9966352;28;20506;-65
2021/03/27 20:17:46;;;;;;;2.28;1.02;;;11.80;41.50;;;;;;9964672;28;20098;-62
2021/03/27 20:22:45;;;;;;;7.05;2.03;;;11.70;41.50;;;;;;9963580;28;20258;-63
2021/03/27 20:27:41;;;;;;;8.60;1.40;;;11.70;41.60;;;;;;9966126;28;20270;-64
2021/03/27 20:32:53;;;;;;;3.25;1.00;;;11.60;41.80;;;;;;9965551;28;20072;-61
2021/03/27 20:38:18;;;;;;;2.88;1.85;;;11.60;42.10;;;;;;9967659;28;20147;-60
2021/03/27 20:43:30;;;;;;;7.38;2.28;;;11.50;42.30;;;;;;9974759;28;20304;-63
2021/03/27 20:48:42;;;;;;;4.93;2.47;;;11.50;42.60;;;;;;9972470;28;20778;-61
2021/03/27 20:53:51;;;;;;;6.05;2.97;;;11.50;42.50;;;;;;9976009;28;21939;-61
2021/03/27 20:58:42;;;;;;;9.10;3.42;;;11.40;42.70;;;;;;9974465;28;20025;-62
2021/03/27 21:03:53;;;;;;;4.07;1.95;;;11.50;42.60;;;;;;9974212;28;20542;-63
2021/03/27 21:08:52;;;;;;;2.88;1.67;;;11.50;42.80;;;;;;9971732;28;20061;-63
2021/03/27 21:14:00;;;;;;;4.80;2.17;;;11.40;43.00;;;;;;9973812;28;20120;-63
2021/03/27 21:19:02;;;;;;;15.40;5.85;;;11.40;43.00;;;;;;9973091;28;20437;-65
2021/03/27 21:24:19;;;;;;;19.77;9.15;;;11.40;43.00;;;;;;9970945;28;20045;-65
2021/03/27 21:29:32;;;;;;;7.78;2.08;;;11.30;43.20;;;;;;9972502;28;20106;-67
2021/03/27 21:34:39;;;;;;;4.25;1.48;;;11.20;43.60;;;;;;9971548;28;20080;-63
2021/03/27 21:39:45;;;;;;;9.60;2.10;;;11.10;43.60;;;;;;9969963;28;20241;-63
2021/03/27 21:44:45;;;;;;;;;;;11.00;43.80;;;;;;9971071;28;20159;-68
2021/03/27 21:50:01;;;;;;;3.10;1.40;;;10.90;43.80;;;;;;9970081;28;19917;-63
2021/03/27 21:54:59;;;;;;;4.17;1.57;;;10.90;43.90;;;;;;9967289;28;20041;-66
2021/03/27 22:00:55;;;;;;;5.63;1.42;;;10.90;43.80;;;;;;9970719;28;20033;-67
2021/03/27 22:06:02;;;;;;;3.85;1.15;;;10.90;44.10;;;;;;9934377;28;20057;-63
2021/03/27 22:10:55;;;;;;;4.68;1.20;;;10.80;44.20;;;;;;9968777;28;20079;-67
2021/03/27 22:15:55;;;;;;;1.98;1.25;;;10.70;44.30;;;;;;9970328;28;20550;-62
2021/03/27 22:20:49;;;;;;;4.07;1.42;;;10.70;44.40;;;;;;9969714;28;20526;-63
2021/03/27 22:25:44;;;;;;;6.18;2.00;;;10.80;44.40;;;;;;9968699;28;20133;-66
2021/03/27 22:30:45;;;;;;;2.90;1.38;;;10.80;44.60;;;;;;9968897;28;20533;-63
2021/03/27 22:35:42;;;;;;;2.13;1.58;;;10.90;44.70;;;;;;9946465;28;709698;-68
2021/03/27 22:40:37;;;;;;;3.28;1.33;;;10.90;44.80;;;;;;9971891;28;20470;-64
2021/03/27 22:45:33;;;;;;;7.88;2.35;;;10.90;44.90;;;;;;9971060;28;20045;-64
2021/03/27 22:50:30;;;;;;;3.58;1.70;;;10.90;45.10;;;;;;9970900;28;21722;-67
2021/03/27 22:55:27;;;;;;;4.97;1.75;;;10.80;45.10;;;;;;9971063;28;20041;-64
2021/03/27 23:00:17;;;;;;;6.28;2.90;;;10.70;45.20;;;;;;9970317;28;20037;-64
2021/03/27 23:05:21;;;;;;;5.78;1.60;;;10.60;45.20;;;;;;9968363;28;20041;-64
2021/03/27 23:10:19;;;;;;;4.05;1.80;;;10.40;45.40;;;;;;9967691;28;20037;-64
2021/03/27 23:15:15;;;;;;;3.40;1.45;;;10.40;45.60;;;;;;9970087;28;20049;-64
2021/03/27 23:20:27;;;;;;;4.38;1.73;;;10.40;45.80;;;;;;9968155;28;20095;-63
2021/03/27 23:25:22;;;;;;;5.55;1.55;;;10.30;46.00;;;;;;9967213;28;20034;-63
2021/03/27 23:30:39;;;;;;;5.05;1.73;;;10.20;45.90;;;;;;9968184;28;20045;-67
2021/03/27 23:35:59;;;;;;;3.25;1.50;;;10.20;46.30;;;;;;9967242;28;20081;-64
2021/03/27 23:40:49;;;;;;;8.13;1.55;;;10.10;46.30;;;;;;9968157;28;20110;-63
2021/03/27 23:45:45;;;;;;;4.47;1.90;;;10.10;46.40;;;;;;9968006;28;20506;-69
2021/03/27 23:50:49;;;;;;;4.22;1.65;;;10.00;46.50;;;;;;9966595;28;20557;-64
2021/03/27 23:56:10;;;;;;;3.80;2.08;;;10.00;46.70;;;;;;9967846;28;20026;-65
